sensor_id;sensor_type;location;lat;lon;timestamp;P1;durP1;ratioP1;P2;durP2;ratioP2
7426;SDS011;3755;59.316;18.092;2023-07-20T00:02:03;1.65;;;1.15;;
7426;SDS011;3755;59.316;18.092;2023-07-20T00:04:32;3.03;;;0.98;;
7426;SDS011;3755;59.316;18.092;2023-07-20T00:06:59;1.52;;;0.85;;
7426;SDS011;3755;59.316;18.092;2023-07-20T00:09:27;1.95;;;0.82;;
7426;SDS011;3755;59.316;18.092;2023-07-20T00:11:54;1.58;;;0.75;;
7426;SDS011;3755;59.316;18.092;2023-07-20T00:14:21;1.38;;;0.80;;
7426;SDS011;3755;59.316;18.092;2023-07-20T00:16:51;1.98;;;0.90;;
7426;SDS011;3755;59.316;18.092;2023-07-20T00:19:21;1.95;;;0.88;;
7426;SDS011;3755;59.316;18.092;2023-07-20T00:21:49;5.07;;;1.10;;
7426;SDS011;3755;59.316;18.092;2023-07-20T00:24:16;3.33;;;1.00;;
7426;SDS011;3755;59.316;18.092;2023-07-20T00:26:44;3.88;;;0.90;;
7426;SDS011;3755;59.316;18.092;2023-07-20T00:29:11;2.30;;;1.02;;
7426;SDS011;3755;59.316;18.092;2023-07-20T00:31:38;5.18;;;1.05;;
7426;SDS011;3755;59.316;18.092;2023-07-20T00:34:07;1.42;;;0.80;;
7426;SDS011;3755;59.316;18.092;2023-07-20T00:36:34;3.10;;;1.30;;
7426;SDS011;3755;59.316;18.092;2023-07-20T00:39:01;1.15;;;0.90;;
7426;SDS011;3755;59.316;18.092;2023-07-20T00:41:29;4.65;;;0.85;;
7426;SDS011;3755;59.316;18.092;2023-07-20T00:43:57;4.72;;;1.00;;
7426;SDS011;3755;59.316;18.092;2023-07-20T00:46:24;2.47;;;0.90;;
7426;SDS011;3755;59.316;18.092;2023-07-20T00:48:51;4.00;;;1.08;;
7426;SDS011;3755;59.316;18.092;2023-07-20T00:51:21;1.20;;;0.90;;
7426;SDS011;3755;59.316;18.092;2023-07-20T00:53:51;3.35;;;1.10;;
7426;SDS011;3755;59.316;18.092;2023-07-20T00:56:18;2.75;;;0.88;;
7426;SDS011;3755;59.316;18.092;2023-07-20T00:58:46;8.82;;;1.23;;
7426;SDS011;3755;59.316;18.092;2023-07-20T01:01:14;4.10;;;1.20;;
7426;SDS011;3755;59.316;18.092;2023-07-20T01:03:41;7.03;;;1.10;;
7426;SDS011;3755;59.316;18.092;2023-07-20T01:06:10;4.65;;;1.00;;
7426;SDS011;3755;59.316;18.092;2023-07-20T01:08:45;2.70;;;1.00;;
7426;SDS011;3755;59.316;18.092;2023-07-20T01:11:21;3.25;;;1.20;;
7426;SDS011;3755;59.316;18.092;2023-07-20T01:13:55;2.65;;;1.30;;
7426;SDS011;3755;59.316;18.092;2023-07-20T01:16:22;4.25;;;1.40;;
7426;SDS011;3755;59.316;18.092;2023-07-20T01:18:49;5.60;;;1.08;;
7426;SDS011;3755;59.316;18.092;2023-07-20T01:21:18;4.28;;;1.00;;
7426;SDS011;3755;59.316;18.092;2023-07-20T01:24:10;4.28;;;1.13;;
7426;SDS011;3755;59.316;18.092;2023-07-20T01:27:11;5.40;;;1.45;;
7426;SDS011;3755;59.316;18.092;2023-07-20T01:32:53;3.63;;;0.82;;
7426;SDS011;3755;59.316;18.092;2023-07-20T01:35:22;3.65;;;1.20;;
7426;SDS011;3755;59.316;18.092;2023-07-20T01:37:53;3.95;;;1.23;;
7426;SDS011;3755;59.316;18.092;2023-07-20T01:40:21;4.10;;;1.10;;
7426;SDS011;3755;59.316;18.092;2023-07-20T01:42:50;4.10;;;1.15;;
7426;SDS011;3755;59.316;18.092;2023-07-20T01:45:18;4.70;;;1.42;;
7426;SDS011;3755;59.316;18.092;2023-07-20T01:47:46;4.60;;;1.10;;
7426;SDS011;3755;59.316;18.092;2023-07-20T01:50:14;2.20;;;1.08;;
7426;SDS011;3755;59.316;18.092;2023-07-20T01:52:41;5.40;;;1.40;;
7426;SDS011;3755;59.316;18.092;2023-07-20T01:55:08;4.45;;;1.20;;
7426;SDS011;3755;59.316;18.092;2023-07-20T01:57:35;3.72;;;1.52;;
7426;SDS011;3755;59.316;18.092;2023-07-20T02:00:03;3.17;;;1.20;;
7426;SDS011;3755;59.316;18.092;2023-07-20T02:02:32;3.80;;;1.30;;
7426;SDS011;3755;59.316;18.092;2023-07-20T02:04:59;6.28;;;2.00;;
7426;SDS011;3755;59.316;18.092;2023-07-20T02:07:27;8.00;;;3.10;;
7426;SDS011;3755;59.316;18.092;2023-07-20T02:09:54;8.05;;;3.50;;
7426;SDS011;3755;59.316;18.092;2023-07-20T02:12:22;11.70;;;4.97;;
7426;SDS011;3755;59.316;18.092;2023-07-20T02:14:49;10.38;;;5.70;;
7426;SDS011;3755;59.316;18.092;2023-07-20T02:17:16;12.20;;;5.93;;
7426;SDS011;3755;59.316;18.092;2023-07-20T02:19:44;10.25;;;5.28;;
7426;SDS011;3755;59.316;18.092;2023-07-20T02:22:11;9.25;;;5.47;;
7426;SDS011;3755;59.316;18.092;2023-07-20T02:24:40;8.05;;;4.60;;
7426;SDS011;3755;59.316;18.092;2023-07-20T02:27:07;7.13;;;3.80;;
7426;SDS011;3755;59.316;18.092;2023-07-20T02:29:34;8.23;;;3.83;;
7426;SDS011;3755;59.316;18.092;2023-07-20T02:32:02;6.97;;;2.78;;
7426;SDS011;3755;59.316;18.092;2023-07-20T02:34:30;6.68;;;3.17;;
7426;SDS011;3755;59.316;18.092;2023-07-20T02:36:57;4.78;;;1.88;;
7426;SDS011;3755;59.316;18.092;2023-07-20T02:39:26;7.28;;;2.20;;
7426;SDS011;3755;59.316;18.092;2023-07-20T02:41:55;5.38;;;1.98;;
7426;SDS011;3755;59.316;18.092;2023-07-20T02:44:22;3.08;;;1.35;;
7426;SDS011;3755;59.316;18.092;2023-07-20T02:46:49;4.97;;;1.48;;
7426;SDS011;3755;59.316;18.092;2023-07-20T02:49:16;7.47;;;1.77;;
7426;SDS011;3755;59.316;18.092;2023-07-20T02:51:43;3.90;;;1.15;;
7426;SDS011;3755;59.316;18.092;2023-07-20T02:54:11;3.88;;;1.40;;
7426;SDS011;3755;59.316;18.092;2023-07-20T02:56:38;2.13;;;1.00;;
7426;SDS011;3755;59.316;18.092;2023-07-20T02:59:07;3.97;;;1.40;;
7426;SDS011;3755;59.316;18.092;2023-07-20T03:01:34;3.75;;;1.20;;
7426;SDS011;3755;59.316;18.092;2023-07-20T03:04:01;6.53;;;1.40;;
7426;SDS011;3755;59.316;18.092;2023-07-20T03:06:29;5.78;;;1.58;;
7426;SDS011;3755;59.316;18.092;2023-07-20T03:08:56;4.60;;;1.50;;
7426;SDS011;3755;59.316;18.092;2023-07-20T03:11:23;5.95;;;1.77;;
7426;SDS011;3755;59.316;18.092;2023-07-20T03:13:51;4.65;;;1.42;;
7426;SDS011;3755;59.316;18.092;2023-07-20T03:16:19;4.55;;;1.27;;
7426;SDS011;3755;59.316;18.092;2023-07-20T03:18:46;4.82;;;1.40;;
7426;SDS011;3755;59.316;18.092;2023-07-20T03:21:13;4.07;;;1.50;;
7426;SDS011;3755;59.316;18.092;2023-07-20T03:23:41;4.25;;;1.58;;
7426;SDS011;3755;59.316;18.092;2023-07-20T03:26:08;4.45;;;1.38;;
7426;SDS011;3755;59.316;18.092;2023-07-20T03:28:35;6.22;;;1.42;;
7426;SDS011;3755;59.316;18.092;2023-07-20T03:31:02;3.05;;;1.48;;
7426;SDS011;3755;59.316;18.092;2023-07-20T03:33:31;2.60;;;1.38;;
7426;SDS011;3755;59.316;18.092;2023-07-20T03:35:58;6.53;;;1.63;;
7426;SDS011;3755;59.316;18.092;2023-07-20T03:38:26;2.72;;;1.40;;
7426;SDS011;3755;59.316;18.092;2023-07-20T03:40:55;4.70;;;1.63;;
7426;SDS011;3755;59.316;18.092;2023-07-20T03:43:24;5.13;;;1.10;;
7426;SDS011;3755;59.316;18.092;2023-07-20T03:45:53;6.60;;;1.42;;
7426;SDS011;3755;59.316;18.092;2023-07-20T03:48:22;6.53;;;1.55;;
7426;SDS011;3755;59.316;18.092;2023-07-20T03:50:51;8.82;;;1.73;;
7426;SDS011;3755;59.316;18.092;2023-07-20T03:53:21;6.25;;;1.40;;
7426;SDS011;3755;59.316;18.092;2023-07-20T03:55:48;3.60;;;1.40;;
7426;SDS011;3755;59.316;18.092;2023-07-20T03:58:16;7.97;;;1.55;;
7426;SDS011;3755;59.316;18.092;2023-07-20T04:00:44;4.60;;;1.15;;
7426;SDS011;3755;59.316;18.092;2023-07-20T04:03:12;4.60;;;1.65;;
7426;SDS011;3755;59.316;18.092;2023-07-20T04:05:39;3.63;;;1.30;;
7426;SDS011;3755;59.316;18.092;2023-07-20T04:08:08;5.07;;;1.92;;
7426;SDS011;3755;59.316;18.092;2023-07-20T04:10:36;5.20;;;1.23;;
7426;SDS011;3755;59.316;18.092;2023-07-20T04:13:03;3.92;;;1.23;;
7426;SDS011;3755;59.316;18.092;2023-07-20T04:15:30;8.75;;;2.40;;
7426;SDS011;3755;59.316;18.092;2023-07-20T04:17:58;4.72;;;1.38;;
7426;SDS011;3755;59.316;18.092;2023-07-20T04:20:26;5.72;;;1.90;;
7426;SDS011;3755;59.316;18.092;2023-07-20T04:22:53;4.15;;;1.33;;
7426;SDS011;3755;59.316;18.092;2023-07-20T04:25:21;10.02;;;1.90;;
7426;SDS011;3755;59.316;18.092;2023-07-20T04:27:48;6.05;;;1.70;;
7426;SDS011;3755;59.316;18.092;2023-07-20T04:30:17;3.58;;;1.42;;
7426;SDS011;3755;59.316;18.092;2023-07-20T04:32:47;4.65;;;1.52;;
7426;SDS011;3755;59.316;18.092;2023-07-20T04:35:17;8.38;;;1.88;;
7426;SDS011;3755;59.316;18.092;2023-07-20T04:38:05;6.32;;;1.88;;
7426;SDS011;3755;59.316;18.092;2023-07-20T04:40:34;7.47;;;1.73;;
7426;SDS011;3755;59.316;18.092;2023-07-20T04:43:01;8.65;;;1.80;;
7426;SDS011;3755;59.316;18.092;2023-07-20T04:45:28;11.38;;;2.30;;
7426;SDS011;3755;59.316;18.092;2023-07-20T04:47:55;6.75;;;2.17;;
7426;SDS011;3755;59.316;18.092;2023-07-20T04:50:22;5.35;;;1.75;;
7426;SDS011;3755;59.316;18.092;2023-07-20T04:52:50;5.57;;;1.50;;
7426;SDS011;3755;59.316;18.092;2023-07-20T04:55:18;5.80;;;1.52;;
7426;SDS011;3755;59.316;18.092;2023-07-20T04:57:46;6.78;;;1.77;;
7426;SDS011;3755;59.316;18.092;2023-07-20T05:00:14;7.00;;;2.10;;
7426;SDS011;3755;59.316;18.092;2023-07-20T05:02:42;7.68;;;1.98;;
7426;SDS011;3755;59.316;18.092;2023-07-20T05:05:09;3.72;;;1.40;;
7426;SDS011;3755;59.316;18.092;2023-07-20T05:07:37;8.20;;;2.08;;
7426;SDS011;3755;59.316;18.092;2023-07-20T05:10:04;9.65;;;2.30;;
7426;SDS011;3755;59.316;18.092;2023-07-20T05:12:32;6.65;;;2.20;;
7426;SDS011;3755;59.316;18.092;2023-07-20T05:15:01;8.52;;;1.70;;
7426;SDS011;3755;59.316;18.092;2023-07-20T05:17:28;2.67;;;1.40;;
7426;SDS011;3755;59.316;18.092;2023-07-20T05:19:55;6.40;;;2.10;;
7426;SDS011;3755;59.316;18.092;2023-07-20T05:22:23;7.05;;;2.38;;
7426;SDS011;3755;59.316;18.092;2023-07-20T05:24:50;5.00;;;1.77;;
7426;SDS011;3755;59.316;18.092;2023-07-20T05:27:17;5.88;;;1.88;;
7426;SDS011;3755;59.316;18.092;2023-07-20T05:29:45;9.48;;;2.00;;
7426;SDS011;3755;59.316;18.092;2023-07-20T05:32:13;9.50;;;2.40;;
7426;SDS011;3755;59.316;18.092;2023-07-20T05:34:41;5.25;;;1.90;;
7426;SDS011;3755;59.316;18.092;2023-07-20T05:37:08;8.35;;;1.80;;
7426;SDS011;3755;59.316;18.092;2023-07-20T05:39:35;4.93;;;1.77;;
7426;SDS011;3755;59.316;18.092;2023-07-20T05:42:02;10.52;;;1.92;;
7426;SDS011;3755;59.316;18.092;2023-07-20T05:44:30;11.40;;;2.30;;
7426;SDS011;3755;59.316;18.092;2023-07-20T05:46:57;11.77;;;2.28;;
7426;SDS011;3755;59.316;18.092;2023-07-20T05:49:25;9.57;;;1.92;;
7426;SDS011;3755;59.316;18.092;2023-07-20T05:51:53;8.48;;;1.95;;
7426;SDS011;3755;59.316;18.092;2023-07-20T05:54:21;8.13;;;2.00;;
7426;SDS011;3755;59.316;18.092;2023-07-20T05:56:48;6.35;;;2.45;;
7426;SDS011;3755;59.316;18.092;2023-07-20T05:59:15;8.48;;;1.98;;
7426;SDS011;3755;59.316;18.092;2023-07-20T06:01:42;6.05;;;2.30;;
7426;SDS011;3755;59.316;18.092;2023-07-20T06:04:10;4.68;;;1.90;;
7426;SDS011;3755;59.316;18.092;2023-07-20T06:06:39;8.73;;;2.35;;
7426;SDS011;3755;59.316;18.092;2023-07-20T06:09:06;6.15;;;2.00;;
7426;SDS011;3755;59.316;18.092;2023-07-20T06:11:37;8.57;;;2.47;;
7426;SDS011;3755;59.316;18.092;2023-07-20T06:14:04;6.50;;;2.50;;
7426;SDS011;3755;59.316;18.092;2023-07-20T06:16:31;5.50;;;2.03;;
7426;SDS011;3755;59.316;18.092;2023-07-20T06:18:59;7.88;;;1.70;;
7426;SDS011;3755;59.316;18.092;2023-07-20T06:21:26;5.10;;;2.17;;
7426;SDS011;3755;59.316;18.092;2023-07-20T06:23:55;7.93;;;2.30;;
7426;SDS011;3755;59.316;18.092;2023-07-20T06:26:22;13.95;;;2.45;;
7426;SDS011;3755;59.316;18.092;2023-07-20T06:28:49;6.47;;;2.65;;
7426;SDS011;3755;59.316;18.092;2023-07-20T06:31:16;8.27;;;2.20;;
7426;SDS011;3755;59.316;18.092;2023-07-20T06:33:43;5.65;;;1.95;;
7426;SDS011;3755;59.316;18.092;2023-07-20T06:36:10;9.45;;;2.35;;
7426;SDS011;3755;59.316;18.092;2023-07-20T06:38:37;6.43;;;2.50;;
7426;SDS011;3755;59.316;18.092;2023-07-20T06:41:06;7.30;;;2.33;;
7426;SDS011;3755;59.316;18.092;2023-07-20T06:43:33;7.03;;;1.95;;
7426;SDS011;3755;59.316;18.092;2023-07-20T06:46:00;7.60;;;2.50;;
7426;SDS011;3755;59.316;18.092;2023-07-20T06:48:27;8.38;;;2.55;;
7426;SDS011;3755;59.316;18.092;2023-07-20T06:50:55;4.38;;;1.77;;
7426;SDS011;3755;59.316;18.092;2023-07-20T06:53:22;3.80;;;1.77;;
7426;SDS011;3755;59.316;18.092;2023-07-20T06:55:49;11.45;;;2.10;;
7426;SDS011;3755;59.316;18.092;2023-07-20T06:58:17;5.78;;;1.90;;
7426;SDS011;3755;59.316;18.092;2023-07-20T07:00:46;5.75;;;1.92;;
7426;SDS011;3755;59.316;18.092;2023-07-20T07:03:14;8.68;;;2.60;;
7426;SDS011;3755;59.316;18.092;2023-07-20T07:05:41;6.88;;;2.08;;
7426;SDS011;3755;59.316;18.092;2023-07-20T07:08:10;5.85;;;2.00;;
7426;SDS011;3755;59.316;18.092;2023-07-20T07:10:37;7.00;;;1.70;;
7426;SDS011;3755;59.316;18.092;2023-07-20T07:13:04;4.35;;;1.90;;
7426;SDS011;3755;59.316;18.092;2023-07-20T07:15:33;7.43;;;1.80;;
7426;SDS011;3755;59.316;18.092;2023-07-20T07:18:00;4.93;;;1.90;;
7426;SDS011;3755;59.316;18.092;2023-07-20T07:20:28;5.25;;;2.03;;
7426;SDS011;3755;59.316;18.092;2023-07-20T07:22:56;5.63;;;2.03;;
7426;SDS011;3755;59.316;18.092;2023-07-20T07:25:23;8.45;;;2.25;;
7426;SDS011;3755;59.316;18.092;2023-07-20T07:27:52;4.30;;;1.80;;
7426;SDS011;3755;59.316;18.092;2023-07-20T07:30:20;10.00;;;2.20;;
7426;SDS011;3755;59.316;18.092;2023-07-20T07:32:49;6.25;;;2.90;;
7426;SDS011;3755;59.316;18.092;2023-07-20T07:35:17;4.68;;;2.13;;
7426;SDS011;3755;59.316;18.092;2023-07-20T07:37:44;5.03;;;2.33;;
7426;SDS011;3755;59.316;18.092;2023-07-20T07:40:12;7.10;;;2.05;;
7426;SDS011;3755;59.316;18.092;2023-07-20T07:42:39;6.45;;;1.63;;
7426;SDS011;3755;59.316;18.092;2023-07-20T07:45:07;6.88;;;1.95;;
7426;SDS011;3755;59.316;18.092;2023-07-20T07:47:34;3.15;;;1.40;;
7426;SDS011;3755;59.316;18.092;2023-07-20T07:50:03;3.60;;;1.83;;
7426;SDS011;3755;59.316;18.092;2023-07-20T07:52:31;7.25;;;1.98;;
7426;SDS011;3755;59.316;18.092;2023-07-20T07:54:58;4.88;;;1.90;;
7426;SDS011;3755;59.316;18.092;2023-07-20T07:57:26;4.97;;;2.05;;
7426;SDS011;3755;59.316;18.092;2023-07-20T07:59:53;4.53;;;2.00;;
7426;SDS011;3755;59.316;18.092;2023-07-20T08:02:20;4.00;;;1.88;;
7426;SDS011;3755;59.316;18.092;2023-07-20T08:04:47;3.97;;;1.80;;
7426;SDS011;3755;59.316;18.092;2023-07-20T08:07:18;4.72;;;1.20;;
7426;SDS011;3755;59.316;18.092;2023-07-20T08:09:45;2.42;;;1.30;;
7426;SDS011;3755;59.316;18.092;2023-07-20T08:12:12;3.63;;;1.25;;
7426;SDS011;3755;59.316;18.092;2023-07-20T08:14:42;4.90;;;2.10;;
7426;SDS011;3755;59.316;18.092;2023-07-20T08:17:09;2.85;;;1.45;;
7426;SDS011;3755;59.316;18.092;2023-07-20T08:19:37;3.55;;;1.55;;
7426;SDS011;3755;59.316;18.092;2023-07-20T08:22:06;4.65;;;1.65;;
7426;SDS011;3755;59.316;18.092;2023-07-20T08:24:38;3.72;;;1.30;;
7426;SDS011;3755;59.316;18.092;2023-07-20T08:27:06;3.47;;;1.38;;
7426;SDS011;3755;59.316;18.092;2023-07-20T08:29:34;4.15;;;1.30;;
7426;SDS011;3755;59.316;18.092;2023-07-20T08:32:02;5.45;;;1.63;;
7426;SDS011;3755;59.316;18.092;2023-07-20T08:34:30;4.05;;;1.45;;
7426;SDS011;3755;59.316;18.092;2023-07-20T08:36:58;3.00;;;1.33;;
7426;SDS011;3755;59.316;18.092;2023-07-20T08:39:25;4.18;;;1.67;;
7426;SDS011;3755;59.316;18.092;2023-07-20T08:41:54;7.40;;;1.65;;
7426;SDS011;3755;59.316;18.092;2023-07-20T08:44:22;4.43;;;1.40;;
7426;SDS011;3755;59.316;18.092;2023-07-20T08:46:50;4.10;;;1.92;;
7426;SDS011;3755;59.316;18.092;2023-07-20T08:49:20;3.53;;;1.23;;
7426;SDS011;3755;59.316;18.092;2023-07-20T08:51:47;4.13;;;1.50;;
7426;SDS011;3755;59.316;18.092;2023-07-20T08:54:15;5.53;;;1.58;;
7426;SDS011;3755;59.316;18.092;2023-07-20T08:56:43;6.82;;;1.83;;
7426;SDS011;3755;59.316;18.092;2023-07-20T08:59:16;9.07;;;2.55;;
7426;SDS011;3755;59.316;18.092;2023-07-20T09:01:44;3.38;;;1.27;;
7426;SDS011;3755;59.316;18.092;2023-07-20T09:04:12;4.18;;;1.90;;
7426;SDS011;3755;59.316;18.092;2023-07-20T09:06:39;6.80;;;1.90;;
7426;SDS011;3755;59.316;18.092;2023-07-20T09:09:06;5.18;;;1.92;;
7426;SDS011;3755;59.316;18.092;2023-07-20T09:11:34;5.05;;;1.95;;
7426;SDS011;3755;59.316;18.092;2023-07-20T09:14:04;4.22;;;1.98;;
7426;SDS011;3755;59.316;18.092;2023-07-20T09:16:35;3.65;;;1.60;;
7426;SDS011;3755;59.316;18.092;2023-07-20T09:19:15;2.15;;;1.42;;
7426;SDS011;3755;59.316;18.092;2023-07-20T09:21:44;4.07;;;1.20;;
7426;SDS011;3755;59.316;18.092;2023-07-20T09:24:12;5.38;;;1.50;;
7426;SDS011;3755;59.316;18.092;2023-07-20T09:26:43;5.53;;;1.40;;
7426;SDS011;3755;59.316;18.092;2023-07-20T09:29:13;6.75;;;1.88;;
7426;SDS011;3755;59.316;18.092;2023-07-20T09:31:42;3.58;;;1.63;;
7426;SDS011;3755;59.316;18.092;2023-07-20T09:34:09;4.32;;;1.58;;
7426;SDS011;3755;59.316;18.092;2023-07-20T09:36:36;4.07;;;1.17;;
7426;SDS011;3755;59.316;18.092;2023-07-20T09:39:03;3.50;;;1.55;;
7426;SDS011;3755;59.316;18.092;2023-07-20T09:41:39;2.55;;;0.98;;
7426;SDS011;3755;59.316;18.092;2023-07-20T09:44:08;4.13;;;1.45;;
7426;SDS011;3755;59.316;18.092;2023-07-20T09:46:44;5.90;;;1.75;;
7426;SDS011;3755;59.316;18.092;2023-07-20T09:49:12;1.85;;;1.27;;
7426;SDS011;3755;59.316;18.092;2023-07-20T09:51:40;3.83;;;1.20;;
7426;SDS011;3755;59.316;18.092;2023-07-20T09:54:08;5.57;;;1.58;;
7426;SDS011;3755;59.316;18.092;2023-07-20T09:56:37;3.28;;;1.30;;
7426;SDS011;3755;59.316;18.092;2023-07-20T09:59:05;7.40;;;1.50;;
7426;SDS011;3755;59.316;18.092;2023-07-20T10:01:34;6.75;;;1.58;;
7426;SDS011;3755;59.316;18.092;2023-07-20T10:04:07;1.05;;;0.80;;
7426;SDS011;3755;59.316;18.092;2023-07-20T10:06:37;3.90;;;1.50;;
7426;SDS011;3755;59.316;18.092;2023-07-20T10:09:09;1.50;;;1.00;;
7426;SDS011;3755;59.316;18.092;2023-07-20T10:11:40;5.03;;;1.70;;
7426;SDS011;3755;59.316;18.092;2023-07-20T10:14:12;3.08;;;1.20;;
7426;SDS011;3755;59.316;18.092;2023-07-20T10:16:46;3.00;;;1.63;;
7426;SDS011;3755;59.316;18.092;2023-07-20T10:19:20;3.85;;;1.50;;
7426;SDS011;3755;59.316;18.092;2023-07-20T10:22:00;4.05;;;1.40;;
7426;SDS011;3755;59.316;18.092;2023-07-20T10:24:33;5.07;;;1.80;;
7426;SDS011;3755;59.316;18.092;2023-07-20T10:27:01;6.97;;;2.08;;
7426;SDS011;3755;59.316;18.092;2023-07-20T10:29:29;4.57;;;1.60;;
7426;SDS011;3755;59.316;18.092;2023-07-20T10:31:56;5.20;;;1.40;;
7426;SDS011;3755;59.316;18.092;2023-07-20T10:34:26;1.63;;;1.40;;
7426;SDS011;3755;59.316;18.092;2023-07-20T10:36:54;5.57;;;1.23;;
7426;SDS011;3755;59.316;18.092;2023-07-20T10:39:24;1.60;;;1.10;;
7426;SDS011;3755;59.316;18.092;2023-07-20T10:41:59;2.47;;;1.00;;
7426;SDS011;3755;59.316;18.092;2023-07-20T10:44:28;2.08;;;1.20;;
7426;SDS011;3755;59.316;18.092;2023-07-20T10:47:00;3.47;;;1.13;;
7426;SDS011;3755;59.316;18.092;2023-07-20T10:49:29;1.95;;;1.08;;
7426;SDS011;3755;59.316;18.092;2023-07-20T10:52:03;2.10;;;1.35;;
7426;SDS011;3755;59.316;18.092;2023-07-20T10:54:35;2.80;;;1.30;;
7426;SDS011;3755;59.316;18.092;2023-07-20T10:57:30;2.65;;;1.50;;
7426;SDS011;3755;59.316;18.092;2023-07-20T11:00:09;4.28;;;1.50;;
7426;SDS011;3755;59.316;18.092;2023-07-20T11:02:44;4.18;;;1.40;;
7426;SDS011;3755;59.316;18.092;2023-07-20T11:05:32;6.00;;;1.73;;
7426;SDS011;3755;59.316;18.092;2023-07-20T11:08:02;4.25;;;1.35;;
7426;SDS011;3755;59.316;18.092;2023-07-20T11:10:30;3.25;;;1.23;;
7426;SDS011;3755;59.316;18.092;2023-07-20T11:13:15;1.90;;;1.25;;
7426;SDS011;3755;59.316;18.092;2023-07-20T11:15:47;3.95;;;1.88;;
7426;SDS011;3755;59.316;18.092;2023-07-20T11:18:28;2.20;;;1.20;;
7426;SDS011;3755;59.316;18.092;2023-07-20T11:20:57;1.33;;;1.10;;
7426;SDS011;3755;59.316;18.092;2023-07-20T11:23:26;1.15;;;1.02;;
7426;SDS011;3755;59.316;18.092;2023-07-20T11:25:54;3.33;;;0.85;;
7426;SDS011;3755;59.316;18.092;2023-07-20T11:28:21;3.25;;;1.10;;
7426;SDS011;3755;59.316;18.092;2023-07-20T11:30:51;1.83;;;0.90;;
7426;SDS011;3755;59.316;18.092;2023-07-20T11:33:19;2.40;;;0.93;;
7426;SDS011;3755;59.316;18.092;2023-07-20T11:35:48;2.35;;;1.10;;
7426;SDS011;3755;59.316;18.092;2023-07-20T11:38:17;2.90;;;1.25;;
7426;SDS011;3755;59.316;18.092;2023-07-20T11:40:45;2.38;;;1.13;;
7426;SDS011;3755;59.316;18.092;2023-07-20T11:43:12;2.72;;;1.08;;
7426;SDS011;3755;59.316;18.092;2023-07-20T11:45:40;1.90;;;0.98;;
7426;SDS011;3755;59.316;18.092;2023-07-20T11:48:07;2.13;;;1.15;;
7426;SDS011;3755;59.316;18.092;2023-07-20T11:50:41;2.22;;;1.63;;
7426;SDS011;3755;59.316;18.092;2023-07-20T11:53:08;4.55;;;1.40;;
7426;SDS011;3755;59.316;18.092;2023-07-20T11:55:37;8.40;;;1.65;;
7426;SDS011;3755;59.316;18.092;2023-07-20T11:58:06;5.20;;;1.80;;
7426;SDS011;3755;59.316;18.092;2023-07-20T12:00:35;3.45;;;1.42;;
7426;SDS011;3755;59.316;18.092;2023-07-20T12:03:05;6.25;;;1.63;;
7426;SDS011;3755;59.316;18.092;2023-07-20T12:05:33;3.05;;;1.10;;
7426;SDS011;3755;59.316;18.092;2023-07-20T12:08:00;3.83;;;1.50;;
7426;SDS011;3755;59.316;18.092;2023-07-20T12:10:28;5.28;;;1.55;;
7426;SDS011;3755;59.316;18.092;2023-07-20T12:13:00;4.95;;;1.80;;
7426;SDS011;3755;59.316;18.092;2023-07-20T12:15:28;2.30;;;1.10;;
7426;SDS011;3755;59.316;18.092;2023-07-20T12:17:57;2.42;;;1.30;;
7426;SDS011;3755;59.316;18.092;2023-07-20T12:20:26;4.45;;;1.15;;
7426;SDS011;3755;59.316;18.092;2023-07-20T12:22:56;3.58;;;1.27;;
7426;SDS011;3755;59.316;18.092;2023-07-20T12:25:36;8.60;;;1.67;;
7426;SDS011;3755;59.316;18.092;2023-07-20T12:28:06;7.13;;;2.20;;
7426;SDS011;3755;59.316;18.092;2023-07-20T12:30:34;7.20;;;1.15;;
7426;SDS011;3755;59.316;18.092;2023-07-20T12:33:02;1.92;;;1.05;;
7426;SDS011;3755;59.316;18.092;2023-07-20T12:35:30;1.98;;;1.08;;
7426;SDS011;3755;59.316;18.092;2023-07-20T12:37:58;2.63;;;1.35;;
7426;SDS011;3755;59.316;18.092;2023-07-20T12:40:26;5.68;;;1.23;;
7426;SDS011;3755;59.316;18.092;2023-07-20T12:42:54;3.22;;;1.42;;
7426;SDS011;3755;59.316;18.092;2023-07-20T12:45:30;1.20;;;1.00;;
7426;SDS011;3755;59.316;18.092;2023-07-20T12:47:59;3.63;;;1.38;;
7426;SDS011;3755;59.316;18.092;2023-07-20T12:50:26;1.85;;;1.10;;
7426;SDS011;3755;59.316;18.092;2023-07-20T12:52:54;2.63;;;1.10;;
7426;SDS011;3755;59.316;18.092;2023-07-20T12:55:21;3.15;;;0.95;;
7426;SDS011;3755;59.316;18.092;2023-07-20T12:57:48;4.63;;;1.42;;
7426;SDS011;3755;59.316;18.092;2023-07-20T13:00:16;5.78;;;2.05;;
7426;SDS011;3755;59.316;18.092;2023-07-20T13:02:45;5.47;;;1.60;;
7426;SDS011;3755;59.316;18.092;2023-07-20T13:05:12;2.88;;;1.10;;
7426;SDS011;3755;59.316;18.092;2023-07-20T13:07:40;3.55;;;1.30;;
7426;SDS011;3755;59.316;18.092;2023-07-20T13:10:08;4.35;;;1.17;;
7426;SDS011;3755;59.316;18.092;2023-07-20T13:12:36;1.52;;;1.13;;
7426;SDS011;3755;59.316;18.092;2023-07-20T13:15:04;1.70;;;1.00;;
7426;SDS011;3755;59.316;18.092;2023-07-20T13:17:32;2.60;;;1.10;;
7426;SDS011;3755;59.316;18.092;2023-07-20T13:20:02;1.92;;;0.85;;
7426;SDS011;3755;59.316;18.092;2023-07-20T13:22:30;8.48;;;1.67;;
7426;SDS011;3755;59.316;18.092;2023-07-20T13:24:57;2.05;;;0.90;;
7426;SDS011;3755;59.316;18.092;2023-07-20T13:27:25;5.13;;;1.25;;
7426;SDS011;3755;59.316;18.092;2023-07-20T13:29:52;1.38;;;1.00;;
7426;SDS011;3755;59.316;18.092;2023-07-20T13:32:19;4.05;;;1.55;;
7426;SDS011;3755;59.316;18.092;2023-07-20T13:34:46;3.22;;;1.20;;
7426;SDS011;3755;59.316;18.092;2023-07-20T13:37:15;2.75;;;1.05;;
7426;SDS011;3755;59.316;18.092;2023-07-20T13:39:42;2.40;;;1.17;;
7426;SDS011;3755;59.316;18.092;2023-07-20T13:42:10;2.38;;;1.17;;
7426;SDS011;3755;59.316;18.092;2023-07-20T13:44:37;2.20;;;1.13;;
7426;SDS011;3755;59.316;18.092;2023-07-20T13:47:05;3.05;;;1.20;;
7426;SDS011;3755;59.316;18.092;2023-07-20T13:49:32;1.67;;;1.30;;
7426;SDS011;3755;59.316;18.092;2023-07-20T13:52:00;2.88;;;1.20;;
7426;SDS011;3755;59.316;18.092;2023-07-20T13:54:28;2.70;;;1.08;;
7426;SDS011;3755;59.316;18.092;2023-07-20T13:56:56;2.58;;;1.23;;
7426;SDS011;3755;59.316;18.092;2023-07-20T13:59:23;3.97;;;1.20;;
7426;SDS011;3755;59.316;18.092;2023-07-20T14:01:50;3.15;;;1.17;;
7426;SDS011;3755;59.316;18.092;2023-07-20T14:04:17;2.80;;;1.10;;
7426;SDS011;3755;59.316;18.092;2023-07-20T14:06:45;3.42;;;1.10;;
7426;SDS011;3755;59.316;18.092;2023-07-20T14:09:12;2.00;;;0.90;;
7426;SDS011;3755;59.316;18.092;2023-07-20T14:11:41;2.53;;;1.10;;
7426;SDS011;3755;59.316;18.092;2023-07-20T14:14:08;3.30;;;1.10;;
7426;SDS011;3755;59.316;18.092;2023-07-20T14:16:36;4.03;;;1.05;;
7426;SDS011;3755;59.316;18.092;2023-07-20T14:19:03;2.78;;;1.00;;
7426;SDS011;3755;59.316;18.092;2023-07-20T14:21:30;0.98;;;0.70;;
7426;SDS011;3755;59.316;18.092;2023-07-20T14:23:58;6.13;;;1.50;;
7426;SDS011;3755;59.316;18.092;2023-07-20T14:26:25;3.35;;;0.88;;
7426;SDS011;3755;59.316;18.092;2023-07-20T14:28:54;1.73;;;1.13;;
7426;SDS011;3755;59.316;18.092;2023-07-20T14:31:21;2.10;;;1.17;;
7426;SDS011;3755;59.316;18.092;2023-07-20T14:33:48;2.80;;;1.00;;
7426;SDS011;3755;59.316;18.092;2023-07-20T14:36:15;5.10;;;1.63;;
7426;SDS011;3755;59.316;18.092;2023-07-20T14:38:43;2.17;;;1.40;;
7426;SDS011;3755;59.316;18.092;2023-07-20T14:41:10;3.00;;;1.25;;
7426;SDS011;3755;59.316;18.092;2023-07-20T14:43:37;2.45;;;1.10;;
7426;SDS011;3755;59.316;18.092;2023-07-20T14:46:06;3.30;;;1.33;;
7426;SDS011;3755;59.316;18.092;2023-07-20T14:48:33;4.53;;;1.10;;
7426;SDS011;3755;59.316;18.092;2023-07-20T14:51:00;3.05;;;1.58;;
7426;SDS011;3755;59.316;18.092;2023-07-20T14:53:27;5.10;;;1.35;;
7426;SDS011;3755;59.316;18.092;2023-07-20T14:55:58;2.75;;;1.25;;
7426;SDS011;3755;59.316;18.092;2023-07-20T14:58:26;2.28;;;1.40;;
7426;SDS011;3755;59.316;18.092;2023-07-20T15:00:53;2.33;;;1.50;;
7426;SDS011;3755;59.316;18.092;2023-07-20T15:03:22;3.20;;;1.17;;
7426;SDS011;3755;59.316;18.092;2023-07-20T15:05:49;2.95;;;1.48;;
7426;SDS011;3755;59.316;18.092;2023-07-20T15:08:16;3.05;;;1.23;;
7426;SDS011;3755;59.316;18.092;2023-07-20T15:10:44;1.58;;;1.10;;
7426;SDS011;3755;59.316;18.092;2023-07-20T15:13:11;4.15;;;1.45;;